createdAt,value
2022-10-05T00:00:06.368Z,100.00
2022-10-05T00:03:11.775Z,100.00
2022-10-05T00:06:13.184Z,100.00
2022-10-05T00:09:20.937Z,100.00
2022-10-05T00:12:22.887Z,100.00
2022-10-05T00:15:24.377Z,100.00
2022-10-05T00:18:26.949Z,100.00
2022-10-05T00:21:29.000Z,100.00
2022-10-05T00:24:30.398Z,100.00
2022-10-05T00:27:35.038Z,100.00
2022-10-05T00:30:36.490Z,100.00
2022-10-05T00:33:37.899Z,100.00
2022-10-05T00:36:40.115Z,100.00
2022-10-05T00:39:42.490Z,100.00
2022-10-05T00:43:10.274Z,100.00
2022-10-05T00:46:23.903Z,100.00
2022-10-05T00:49:25.350Z,100.00
2022-10-05T00:53:17.212Z,100.00
2022-10-05T00:56:36.522Z,100.00
2022-10-05T00:59:47.288Z,100.00
2022-10-05T01:03:05.156Z,100.00
2022-10-05T01:06:34.800Z,100.00
2022-10-05T01:10:05.627Z,100.00
2022-10-05T01:13:32.748Z,100.00
2022-10-05T01:16:59.906Z,100.00
2022-10-05T01:20:15.360Z,100.00
2022-10-05T01:23:19.636Z,100.00
2022-10-05T01:26:23.973Z,100.00
2022-10-05T01:29:51.556Z,100.00
2022-10-05T01:33:10.585Z,100.00
2022-10-05T01:36:25.594Z,100.00
2022-10-05T01:40:05.052Z,100.00
2022-10-05T01:43:32.744Z,100.00
2022-10-05T01:46:58.413Z,100.00
2022-10-05T01:50:11.962Z,100.00
2022-10-05T01:53:44.250Z,100.00
2022-10-05T01:57:09.958Z,100.00
2022-10-05T02:00:14.768Z,100.00
2022-10-05T02:03:20.987Z,100.00
2022-10-05T02:06:26.297Z,100.00
2022-10-05T02:09:37.317Z,100.00
2022-10-05T02:12:39.505Z,100.00
2022-10-05T02:15:58.140Z,100.00
2022-10-05T02:19:08.184Z,100.00
2022-10-05T02:22:26.348Z,100.00
2022-10-05T02:25:33.082Z,100.00
2022-10-05T02:28:39.903Z,100.00
2022-10-05T02:31:48.819Z,100.00
2022-10-05T02:34:50.768Z,100.00
2022-10-05T02:38:11.762Z,100.00
2022-10-05T02:41:32.310Z,100.00
2022-10-05T02:45:04.506Z,100.00
2022-10-05T02:48:24.369Z,100.00
2022-10-05T02:51:48.750Z,100.00
2022-10-05T02:55:17.904Z,100.00
2022-10-05T02:58:23.290Z,100.00
2022-10-05T03:01:34.656Z,100.00
2022-10-05T03:04:48.305Z,100.00
2022-10-05T03:08:08.721Z,100.00
2022-10-05T03:11:22.948Z,100.00
2022-10-05T03:14:47.717Z,100.00
2022-10-05T03:18:14.334Z,100.00
2022-10-05T03:21:48.398Z,100.00
2022-10-05T03:24:59.026Z,100.00
2022-10-05T03:28:23.860Z,100.00
2022-10-05T03:31:49.331Z,100.00
2022-10-05T03:34:58.468Z,100.00
2022-10-05T03:38:15.191Z,100.00
2022-10-05T03:41:22.841Z,100.00
2022-10-05T03:44:44.237Z,100.00
2022-10-05T03:48:05.226Z,100.00
2022-10-05T03:51:40.880Z,100.00
2022-10-05T03:54:48.357Z,100.00
2022-10-05T03:57:52.357Z,100.00
2022-10-05T04:01:01.800Z,100.00
2022-10-05T04:04:07.069Z,100.00
2022-10-05T04:07:23.465Z,100.00
2022-10-05T04:10:33.186Z,100.00
2022-10-05T04:13:40.327Z,100.00
2022-10-05T04:16:45.669Z,100.00
2022-10-05T04:19:59.819Z,100.00
2022-10-05T04:23:11.235Z,100.00
2022-10-05T04:26:24.785Z,100.00
2022-10-05T04:29:36.159Z,100.00
2022-10-05T04:32:42.837Z,100.00
2022-10-05T04:35:57.587Z,100.00
2022-10-05T04:39:18.690Z,100.00
2022-10-05T04:42:32.764Z,100.00
2022-10-05T04:46:05.092Z,100.00
2022-10-05T04:49:28.702Z,100.00
2022-10-05T04:53:05.762Z,100.00
2022-10-05T04:56:49.554Z,100.00
2022-10-05T05:00:08.622Z,100.00
2022-10-05T05:03:38.927Z,100.00
2022-10-05T05:06:58.166Z,100.00
2022-10-05T05:10:23.818Z,100.00
2022-10-05T05:13:47.022Z,100.00
2022-10-05T05:17:22.340Z,100.00
2022-10-05T05:20:53.897Z,100.00
2022-10-05T05:24:13.996Z,100.00
2022-10-05T05:27:39.178Z,100.00
2022-10-05T05:31:05.088Z,100.00
2022-10-05T05:34:18.234Z,100.00
2022-10-05T05:37:28.851Z,100.00
2022-10-05T05:40:35.142Z,100.00
2022-10-05T05:44:04.032Z,100.00
2022-10-05T05:47:24.277Z,100.00
2022-10-05T05:50:40.398Z,100.00
2022-10-05T05:53:48.855Z,100.00
2022-10-05T05:57:10.688Z,100.00
2022-10-05T06:00:13.862Z,100.00
2022-10-05T06:03:37.142Z,100.00
2022-10-05T06:06:44.553Z,100.00
2022-10-05T06:09:54.242Z,100.00
2022-10-05T06:13:06.418Z,100.00
2022-10-05T06:16:21.052Z,100.00
2022-10-05T06:19:26.318Z,100.00
2022-10-05T06:22:43.834Z,100.00
2022-10-05T06:26:15.008Z,100.00
2022-10-05T06:29:22.932Z,100.00
2022-10-05T06:32:50.689Z,100.00
2022-10-05T06:36:18.547Z,100.00
2022-10-05T06:39:48.412Z,100.00
2022-10-05T06:43:16.216Z,100.00
2022-10-05T06:46:55.490Z,100.00
2022-10-05T06:50:41.446Z,100.00
2022-10-05T06:54:20.109Z,100.00
2022-10-05T06:57:37.819Z,100.00
2022-10-05T07:00:54.026Z,100.00
2022-10-05T07:04:36.759Z,100.00
2022-10-05T07:07:59.393Z,100.00
2022-10-05T07:11:25.167Z,100.00
2022-10-05T07:14:56.538Z,100.00
2022-10-05T07:18:13.498Z,100.00
2022-10-05T07:21:58.280Z,100.00
2022-10-05T07:25:30.962Z,100.00
2022-10-05T07:28:50.698Z,100.00
2022-10-05T07:32:15.542Z,100.00
2022-10-05T07:35:51.444Z,100.00
2022-10-05T07:39:36.803Z,100.00
2022-10-05T07:43:18.347Z,100.00
2022-10-05T07:46:34.860Z,100.00
2022-10-05T07:49:51.872Z,100.00
2022-10-05T07:52:57.526Z,100.00
2022-10-05T07:56:13.364Z,100.00
2022-10-05T07:59:24.310Z,100.00
2022-10-05T08:02:34.144Z,100.00
2022-10-05T08:05:41.446Z,100.00
2022-10-05T08:09:04.770Z,100.00
2022-10-05T08:12:23.970Z,100.00
2022-10-05T08:15:34.517Z,100.00
2022-10-05T08:18:48.462Z,100.00
2022-10-05T08:22:02.860Z,100.00
2022-10-05T08:25:10.095Z,100.00
2022-10-05T08:28:22.987Z,100.00
2022-10-05T08:31:29.675Z,100.00
2022-10-05T08:34:45.703Z,100.00
2022-10-05T08:37:48.873Z,100.00
2022-10-05T08:41:01.896Z,100.00
2022-10-05T08:44:31.284Z,100.00
2022-10-05T08:48:04.690Z,100.00
2022-10-05T08:51:26.339Z,100.00
2022-10-05T08:54:46.589Z,100.00
2022-10-05T08:58:03.750Z,100.00
2022-10-05T09:01:21.211Z,100.00
2022-10-05T09:05:07.767Z,100.00
2022-10-05T09:08:54.147Z,100.00
2022-10-05T09:12:42.810Z,100.00
2022-10-05T09:16:13.726Z,100.00
2022-10-05T09:19:30.368Z,100.00
2022-10-05T09:22:40.056Z,100.00
2022-10-05T09:26:06.977Z,100.00
2022-10-05T09:29:33.069Z,99.28
2022-10-05T09:32:59.207Z,100.00
2022-10-05T09:36:27.224Z,100.00
2022-10-05T09:40:08.318Z,98.95
2022-10-05T09:43:47.601Z,99.07
2022-10-05T09:47:16.762Z,100.00
2022-10-05T09:50:48.814Z,97.29
2022-10-05T09:54:34.981Z,95.24
2022-10-05T09:57:57.913Z,94.28
2022-10-05T10:01:15.833Z,93.08
2022-10-05T10:04:41.682Z,92.81
2022-10-05T10:08:20.803Z,91.32
2022-10-05T10:11:59.177Z,90.27
2022-10-05T10:15:23.927Z,85.04
2022-10-05T10:18:36.553Z,82.86
2022-10-05T10:21:44.854Z,84.99
2022-10-05T10:25:24.395Z,85.38
2022-10-05T10:29:07.683Z,81.54
2022-10-05T10:32:24.169Z,83.00
2022-10-05T10:35:31.596Z,84.29
2022-10-05T10:38:51.237Z,84.02
2022-10-05T10:42:14.737Z,83.15
2022-10-05T10:45:28.575Z,81.50
2022-10-05T10:48:30.146Z,83.02
2022-10-05T10:51:52.798Z,78.79
2022-10-05T10:55:04.303Z,78.82
2022-10-05T11:01:39.434Z,78.40
2022-10-05T11:05:08.036Z,78.39
2022-10-05T11:08:46.287Z,78.45
2022-10-05T11:12:17.811Z,77.45
2022-10-05T11:15:31.145Z,77.26
2022-10-05T11:19:03.117Z,77.13
2022-10-05T11:22:23.384Z,76.91
2022-10-05T11:25:47.127Z,76.21
2022-10-05T11:29:11.442Z,75.21
2022-10-05T11:32:50.030Z,74.66
2022-10-05T11:36:11.813Z,74.97
2022-10-05T11:39:36.880Z,72.84
2022-10-05T11:43:21.523Z,72.97
2022-10-05T11:46:29.790Z,72.05
2022-10-05T11:49:38.998Z,69.88
2022-10-05T11:52:48.018Z,70.53
2022-10-05T11:56:21.756Z,71.24
2022-10-05T12:00:18.100Z,70.07
2022-10-05T12:03:43.065Z,68.41
2022-10-05T12:07:02.809Z,67.05
2022-10-05T12:10:14.579Z,69.67
2022-10-05T12:13:25.150Z,66.58
2022-10-05T12:16:32.492Z,66.71
2022-10-05T12:20:02.213Z,66.09
2022-10-05T12:23:17.632Z,65.62
2022-10-05T12:26:51.886Z,66.86
2022-10-05T12:30:01.503Z,67.74
2022-10-05T12:33:28.858Z,66.46
2022-10-05T12:37:02.870Z,66.36
2022-10-05T12:40:22.550Z,67.44
2022-10-05T12:43:33.044Z,67.88
2022-10-05T12:46:52.754Z,67.21
2022-10-05T12:50:07.007Z,67.34
2022-10-05T12:53:20.458Z,66.59
2022-10-05T12:56:53.288Z,66.29
2022-10-05T12:59:59.465Z,66.37
2022-10-05T13:03:12.470Z,66.24
2022-10-05T13:06:17.688Z,65.28
2022-10-05T13:09:56.398Z,67.42
2022-10-05T13:13:36.528Z,67.37
2022-10-05T13:16:59.291Z,68.12
2022-10-05T13:20:18.210Z,68.30
2022-10-05T13:23:40.759Z,65.43
2022-10-05T13:26:46.296Z,65.62
2022-10-05T13:29:58.221Z,65.96
2022-10-05T13:33:07.248Z,65.74
2022-10-05T13:36:23.695Z,65.90
2022-10-05T13:39:31.086Z,66.70
2022-10-05T13:42:55.180Z,66.14
2022-10-05T13:46:25.660Z,62.96
2022-10-05T13:49:36.242Z,65.69
2022-10-05T13:52:56.552Z,63.62
2022-10-05T13:56:25.155Z,62.55
2022-10-05T13:59:26.477Z,63.79
2022-10-05T14:02:38.538Z,62.56
2022-10-05T14:05:55.880Z,62.11
2022-10-05T14:09:00.679Z,62.63
2022-10-05T14:12:05.025Z,62.72
2022-10-05T14:15:28.397Z,62.91
2022-10-05T14:18:31.782Z,61.96
2022-10-05T14:21:47.158Z,61.68
2022-10-05T14:24:54.297Z,61.91
2022-10-05T14:28:19.331Z,61.89
2022-10-05T14:31:28.659Z,61.16
2022-10-05T14:34:35.850Z,61.49
2022-10-05T14:37:52.890Z,61.08
2022-10-05T14:41:05.104Z,60.84
2022-10-05T14:44:09.711Z,60.23
2022-10-05T14:47:23.173Z,61.40
2022-10-05T14:50:26.308Z,61.41
2022-10-05T14:53:43.560Z,61.85
2022-10-05T14:56:54.239Z,59.84
2022-10-05T15:00:03.977Z,60.35
2022-10-05T15:03:09.605Z,61.07
2022-10-05T15:06:37.671Z,61.12
2022-10-05T15:09:44.786Z,60.04
2022-10-05T15:12:48.318Z,61.75
2022-10-05T15:15:59.926Z,61.38
2022-10-05T15:19:16.154Z,62.11
2022-10-05T15:22:31.580Z,60.87
2022-10-05T15:25:46.687Z,63.15
2022-10-05T15:28:54.308Z,62.64
2022-10-05T15:32:15.661Z,64.76
2022-10-05T15:35:45.531Z,65.65
2022-10-05T15:39:10.618Z,66.26
2022-10-05T15:42:16.152Z,66.58
2022-10-05T15:45:20.638Z,65.09
2022-10-05T15:48:35.753Z,65.84
2022-10-05T15:52:18.486Z,67.51
2022-10-05T15:55:42.151Z,66.54
2022-10-05T15:59:30.412Z,67.60
2022-10-05T16:02:54.963Z,69.03
2022-10-05T16:06:18.055Z,69.22
2022-10-05T16:09:38.164Z,70.83
2022-10-05T16:13:07.689Z,71.91
2022-10-05T16:16:34.023Z,73.32
2022-10-05T16:19:59.585Z,73.92
2022-10-05T16:23:12.390Z,75.10
2022-10-05T16:26:43.036Z,76.29
2022-10-05T16:30:16.696Z,76.09
2022-10-05T16:33:46.751Z,77.32
2022-10-05T16:36:54.285Z,77.58
2022-10-05T16:40:02.623Z,78.39
2022-10-05T16:43:22.938Z,80.26
2022-10-05T16:46:38.178Z,81.35
2022-10-05T16:50:09.077Z,82.09
2022-10-05T16:53:19.025Z,84.63
2022-10-05T16:56:27.015Z,85.95
2022-10-05T16:59:47.214Z,88.42
2022-10-05T17:03:12.735Z,89.86
2022-10-05T17:06:34.277Z,92.46
2022-10-05T17:09:49.457Z,93.91
2022-10-05T17:13:02.979Z,95.17
2022-10-05T17:16:46.756Z,96.08
2022-10-05T17:20:06.950Z,97.30
2022-10-05T17:23:42.588Z,98.53
2022-10-05T17:26:57.338Z,98.92
2022-10-05T17:30:31.478Z,99.05
2022-10-05T17:33:34.377Z,99.61
2022-10-05T17:36:57.705Z,99.70
2022-10-05T17:39:59.232Z,100.00
2022-10-05T17:43:16.281Z,100.00
2022-10-05T17:46:38.119Z,100.00
2022-10-05T17:50:16.351Z,100.00
2022-10-05T17:53:52.887Z,100.00
2022-10-05T17:57:24.607Z,100.00
2022-10-05T18:00:32.072Z,100.00
2022-10-05T18:03:51.334Z,100.00
2022-10-05T18:06:55.665Z,100.00
2022-10-05T18:10:20.048Z,100.00
2022-10-05T18:13:49.954Z,100.00
2022-10-05T18:17:11.582Z,100.00
2022-10-05T18:20:28.539Z,100.00
2022-10-05T18:23:35.239Z,100.00
2022-10-05T18:26:45.073Z,100.00
2022-10-05T18:30:05.188Z,100.00
2022-10-05T18:33:29.708Z,100.00
2022-10-05T18:37:03.610Z,100.00
2022-10-05T18:40:31.600Z,100.00
2022-10-05T18:43:37.314Z,100.00
2022-10-05T18:47:03.336Z,100.00
2022-10-05T18:50:21.411Z,100.00
2022-10-05T18:53:38.420Z,100.00
2022-10-05T18:56:49.921Z,100.00
2022-10-05T19:00:07.087Z,100.00
2022-10-05T19:03:23.445Z,100.00
2022-10-05T19:06:39.561Z,100.00
2022-10-05T19:10:17.866Z,100.00
2022-10-05T19:13:50.865Z,100.00
2022-10-05T19:17:07.037Z,100.00
2022-10-05T19:20:27.850Z,100.00
2022-10-05T19:23:44.694Z,100.00
2022-10-05T19:27:01.411Z,100.00
2022-10-05T19:30:17.916Z,100.00
2022-10-05T19:33:50.034Z,100.00
2022-10-05T19:37:14.584Z,100.00
2022-10-05T19:40:40.967Z,100.00
2022-10-05T19:43:56.669Z,100.00
2022-10-05T19:47:29.381Z,100.00
2022-10-05T19:50:33.710Z,100.00
2022-10-05T19:53:46.712Z,100.00
2022-10-05T19:56:52.702Z,100.00
2022-10-05T19:59:57.849Z,100.00
2022-10-05T20:03:14.334Z,100.00
2022-10-05T20:06:15.885Z,100.00
2022-10-05T20:09:22.254Z,100.00
2022-10-05T20:12:50.666Z,100.00
2022-10-05T20:16:35.930Z,100.00
2022-10-05T20:19:57.450Z,100.00
2022-10-05T20:23:18.185Z,100.00
2022-10-05T20:27:02.574Z,100.00
2022-10-05T20:30:05.942Z,100.00
2022-10-05T20:33:11.537Z,100.00
2022-10-05T20:36:13.083Z,100.00
2022-10-05T20:39:16.732Z,100.00
2022-10-05T20:42:19.262Z,100.00
2022-10-05T20:45:21.115Z,100.00
2022-10-05T20:48:22.501Z,100.00
2022-10-05T20:51:24.515Z,100.00
2022-10-05T20:54:26.711Z,100.00
2022-10-05T20:57:28.110Z,100.00
2022-10-05T21:00:49.563Z,100.00
2022-10-05T21:03:50.981Z,100.00
2022-10-05T21:06:53.525Z,100.00
2022-10-05T21:09:55.624Z,100.00
2022-10-05T21:12:57.022Z,100.00
2022-10-05T21:15:58.455Z,100.00
2022-10-05T21:18:59.857Z,100.00
2022-10-05T21:22:02.368Z,100.00
2022-10-05T21:25:04.087Z,100.00
2022-10-05T21:28:06.299Z,100.00
2022-10-05T21:31:08.916Z,100.00
2022-10-05T21:34:10.400Z,100.00
2022-10-05T21:37:11.921Z,100.00
2022-10-05T21:40:13.367Z,100.00
2022-10-05T21:43:14.838Z,100.00
2022-10-05T21:46:22.808Z,100.00
2022-10-05T21:49:25.754Z,100.00
2022-10-05T21:52:27.141Z,100.00
2022-10-05T21:55:28.841Z,100.00
2022-10-05T21:58:31.129Z,100.00
2022-10-05T22:01:35.913Z,100.00
2022-10-05T22:04:37.397Z,100.00
2022-10-05T22:07:38.785Z,100.00
2022-10-05T22:10:40.189Z,100.00
2022-10-05T22:13:47.604Z,100.00
2022-10-05T22:16:49.398Z,100.00
2022-10-05T22:19:51.343Z,100.00
2022-10-05T22:22:53.850Z,100.00
2022-10-05T22:25:55.289Z,100.00
2022-10-05T22:28:56.990Z,100.00
2022-10-05T22:31:58.420Z,100.00
2022-10-05T22:34:59.892Z,100.00
2022-10-05T22:38:02.881Z,100.00
2022-10-05T22:41:04.305Z,100.00
2022-10-05T22:44:06.667Z,100.00
2022-10-05T22:47:08.124Z,100.00
2022-10-05T22:50:09.726Z,100.00
2022-10-05T22:53:12.277Z,100.00
2022-10-05T22:56:13.959Z,100.00
2022-10-05T22:59:15.378Z,100.00
2022-10-05T23:02:18.562Z,100.00
2022-10-05T23:05:19.984Z,100.00
2022-10-05T23:08:21.368Z,100.00
2022-10-05T23:11:25.856Z,100.00
2022-10-05T23:14:29.203Z,100.00
2022-10-05T23:17:33.392Z,100.00
2022-10-05T23:20:34.873Z,100.00
2022-10-05T23:23:38.115Z,100.00
2022-10-05T23:26:39.504Z,100.00
2022-10-05T23:29:40.905Z,100.00
2022-10-05T23:32:44.056Z,100.00
2022-10-05T23:35:45.500Z,100.00
2022-10-05T23:38:47.797Z,100.00
2022-10-05T23:41:49.181Z,100.00
2022-10-05T23:44:50.877Z,100.00
2022-10-05T23:47:52.325Z,100.00
2022-10-05T23:50:55.607Z,100.00
2022-10-05T23:53:57.003Z,100.00
2022-10-05T23:56:58.394Z,100.00
